Time;durP1;ratioP1;P1;durP2;ratioP2;P2;SDS_P1;SDS_P2;PMS_P1;PMS_P2;Temp;Humidity;BMP_temperature;BMP_pressure;BME280_temperature;BME280_humidity;BME280_pressure;Samples;Min_cycle;Max_cycle;Signal;HPM_P1;HPM_P2
2022/09/05 00:00:09;;;;;;;4.32;2.30;;;19.60;64.50;;;22.52;44.36;98039.72;5008820;28;20058;-45
2022/09/05 00:02:59;;;;;;;2.88;2.20;;;19.60;64.70;;;22.49;44.71;98048.31;5009499;28;20068;-44
2022/09/05 00:05:56;;;;;;;3.55;2.58;;;19.60;65.40;;;22.46;44.58;98040.63;5009444;28;20400;-43
2022/09/05 00:09:01;;;;;;;2.22;2.03;;;19.50;65.70;;;22.41;44.58;98044.03;5009792;28;20292;-43
2022/09/05 00:11:46;;;;;;;2.55;2.20;;;19.50;65.60;;;22.39;44.49;98043.41;5008752;28;20379;-43
2022/09/05 00:14:45;;;;;;;3.03;2.13;;;19.40;65.40;;;22.34;44.79;98044.13;5010087;28;20041;-43
2022/09/05 00:17:51;;;;;;;9.98;2.58;;;19.40;65.40;;;22.34;44.80;98048.72;5007510;28;20046;-43
2022/09/05 00:21:05;;;;;;;3.10;2.30;;;19.40;65.40;;;22.28;45.08;98036.06;5009327;28;20060;-43
2022/09/05 00:24:16;;;;;;;3.47;2.50;;;19.30;65.60;;;22.29;44.72;98029.56;5006689;28;20060;-43
2022/09/05 00:27:42;;;;;;;2.47;1.80;;;19.30;65.50;;;22.27;45.17;98035.22;5008962;28;20064;-43
2022/09/05 00:30:17;;;;;;;2.45;1.98;;;19.30;66.30;;;22.24;45.40;98035.66;5009021;28;20054;-49
2022/09/05 00:33:30;;;;;;;3.60;2.20;;;19.20;66.20;;;22.20;45.49;98029.84;5008667;28;20053;-43
2022/09/05 00:36:47;;;;;;;2.67;2.30;;;19.20;66.80;;;22.16;44.94;98028.66;5006598;28;20053;-43
2022/09/05 00:39:36;;;;;;;4.35;2.58;;;19.20;67.00;;;22.17;44.96;98021.34;5001250;28;20474;-44
2022/09/05 00:42:20;;;;;;;3.25;2.35;;;19.20;66.90;;;22.16;45.48;98027.84;5008396;28;20060;-43
2022/09/05 00:44:57;;;;;;;3.88;2.35;;;19.20;67.50;;;22.14;45.07;98025.34;5010036;28;20064;-44
2022/09/05 00:47:46;;;;;;;5.60;2.88;;;19.10;66.60;;;22.13;45.04;98022.84;5007370;28;20065;-44
2022/09/05 00:51:02;;;;;;;4.35;2.38;;;19.20;66.90;;;22.08;45.03;98022.69;5007974;28;20046;-44
2022/09/05 00:53:41;;;;;;;3.03;2.00;;;19.10;67.10;;;22.03;45.65;98031.53;5008122;28;20076;-43
2022/09/05 00:56:59;;;;;;;4.15;2.92;;;19.00;67.40;;;21.95;45.60;98037.25;5006622;28;20045;-44
2022/09/05 01:00:17;;;;;;;4.15;2.72;;;19.00;68.70;;;21.89;45.79;98033.53;5009030;28;20056;-43
2022/09/05 01:03:31;;;;;;;3.45;2.38;;;18.90;68.20;;;21.83;46.05;98043.41;5007341;28;20257;-43
2022/09/05 01:06:33;;;;;;;2.97;2.65;;;18.90;68.60;;;21.79;45.69;98041.34;5008813;28;20049;-45
2022/09/05 01:09:11;;;;;;;3.10;2.40;;;18.80;68.80;;;21.73;46.14;98040.38;5008163;28;20050;-43
2022/09/05 01:12:24;;;;;;;3.15;2.72;;;18.70;69.20;;;21.70;46.36;98038.09;5008127;28;20300;-44
2022/09/05 01:15:03;;;;;;;2.92;2.50;;;18.70;69.80;;;21.69;46.49;98030.19;5008386;28;20050;-43
2022/09/05 01:18:13;;;;;;;5.75;2.88;;;18.70;70.00;;;21.65;46.65;98031.69;5007807;28;20049;-45
2022/09/05 01:20:52;;;;;;;3.00;2.53;;;18.70;70.50;;;21.69;46.58;98025.59;5006820;28;20053;-44
2022/09/05 01:23:58;;;;;;;3.60;2.42;;;18.80;69.50;;;21.72;46.66;98021.63;5007781;28;20048;-43
2022/09/05 01:26:59;;;;;;;4.22;2.47;;;18.90;69.10;;;21.82;46.57;98019.22;4967360;28;20068;-45
2022/09/05 01:29:38;;;;;;;4.97;3.00;;;19.10;68.60;;;21.88;46.26;98020.22;5006602;28;20046;-44
2022/09/05 01:32:31;;;;;;;2.50;2.30;;;19.20;67.50;;;21.93;46.26;98015.78;5007839;28;20267;-43
2022/09/05 01:35:27;;;;;;;3.10;2.78;;;19.30;67.70;;;21.94;46.24;98009.28;5007474;28;20056;-45
2022/09/05 01:38:19;;;;;;;2.95;2.58;;;19.30;67.20;;;21.94;46.20;98006.56;5007870;28;20241;-44
2022/09/05 01:41:04;;;;;;;4.47;2.80;;;19.40;66.80;;;21.97;46.13;98002.59;5007432;28;20077;-43
2022/09/05 01:44:28;;;;;;;3.45;2.53;;;19.40;66.70;;;21.98;46.36;97996.13;5006763;28;20060;-46
2022/09/05 01:47:27;;;;;;;5.28;2.53;;;19.40;66.80;;;21.99;46.43;98008.63;5007998;28;20344;-43
2022/09/05 01:50:31;;;;;;;2.95;2.65;;;19.40;66.70;;;21.98;46.41;98006.97;5007279;28;20053;-43
2022/09/05 01:53:01;;;;;;;5.00;2.85;;;19.40;66.50;;;21.93;46.23;98010.34;5008054;28;20244;-43
2022/09/05 01:55:53;;;;;;;3.10;2.75;;;19.40;66.30;;;21.90;46.66;98007.25;5008083;28;20057;-43
2022/09/05 01:58:54;;;;;;;5.30;2.97;;;19.30;67.00;;;21.92;46.67;98005.16;5007475;28;20058;-43
2022/09/05 02:01:56;;;;;;;4.88;3.22;;;19.20;67.50;;;21.90;46.22;98013.50;5007020;28;20053;-45
2022/09/05 02:04:27;;;;;;;4.07;2.78;;;19.20;67.90;;;21.89;46.69;98003.72;5008359;28;20049;-43
2022/09/05 02:07:56;;;;;;;4.35;2.83;;;19.10;68.00;;;21.86;46.33;98003.34;5007273;28;20058;-43
2022/09/05 02:11:07;;;;;;;3.55;2.92;;;19.10;67.90;;;21.88;46.44;98003.94;4973117;28;20056;-43
2022/09/05 02:13:34;;;;;;;3.13;2.80;;;19.10;68.10;;;21.83;46.50;98004.63;4985475;28;20054;-43
2022/09/05 02:16:37;;;;;;;5.70;3.10;;;19.10;67.80;;;21.76;46.73;98004.69;5002742;28;20069;-44
2022/09/05 02:19:08;;;;;;;4.47;2.90;;;19.10;68.30;;;21.78;46.51;98001.75;4999677;28;20370;-44
2022/09/05 02:22:12;;;;;;;3.13;2.80;;;19.10;67.80;;;21.76;46.73;98003.88;5007031;28;20049;-43
2022/09/05 02:25:03;;;;;;;3.28;2.78;;;19.00;68.30;;;21.73;46.60;98010.56;5008197;28;20056;-42
2022/09/05 02:28:09;;;;;;;2.97;2.70;;;18.90;69.10;;;21.73;46.96;98005.16;5006518;28;20068;-44
2022/09/05 02:30:47;;;;;;;3.60;3.00;;;18.90;69.30;;;21.70;46.57;98002.88;5005521;28;20338;-42
2022/09/05 02:34:07;;;;;;;6.03;3.63;;;18.90;68.70;;;21.70;47.04;97999.34;5007007;28;20054;-44
2022/09/05 02:36:42;;;;;;;2.95;2.55;;;19.00;68.70;;;21.67;46.72;97997.06;5007218;28;20055;-44
2022/09/05 02:39:35;;;;;;;5.13;2.50;;;18.90;68.70;;;21.65;46.60;98000.00;5006287;28;20248;-43
2022/09/05 02:42:46;;;;;;;3.40;2.97;;;18.90;68.90;;;21.66;47.10;98001.69;5005619;28;20053;-45
2022/09/05 02:45:43;;;;;;;3.25;2.95;;;18.90;69.10;;;21.63;46.80;98000.25;5006648;28;20054;-43
2022/09/05 02:48:20;;;;;;;3.40;2.90;;;18.80;68.80;;;21.61;47.16;98005.03;5005335;28;20072;-43
2022/09/05 02:51:40;;;;;;;4.32;2.70;;;18.80;68.90;;;21.57;47.21;98005.72;5005127;28;20046;-43
2022/09/05 02:54:34;;;;;;;2.83;2.55;;;18.80;69.30;;;21.61;47.07;98001.50;5005850;28;20066;-43
2022/09/05 02:57:41;;;;;;;3.72;2.78;;;18.70;70.10;;;21.58;46.83;98001.97;5006181;28;20056;-45
2022/09/05 03:00:47;;;;;;;5.20;3.40;;;18.70;70.40;;;21.52;47.51;98003.69;5005862;28;20255;-43
2022/09/05 03:03:36;;;;;;;5.75;3.00;;;18.60;71.40;;;21.43;47.43;98003.13;5006749;28;20402;-43
2022/09/05 03:06:39;;;;;;;3.03;2.63;;;18.40;72.20;;;21.37;47.74;97997.75;5008152;28;20060;-44
2022/09/05 03:09:27;;;;;;;3.38;2.83;;;18.40;72.80;;;21.34;47.30;97999.00;5007307;28;20092;-44
2022/09/05 03:12:28;;;;;;;3.47;3.05;;;18.40;73.20;;;21.30;47.46;97992.38;5006704;28;20056;-44
2022/09/05 03:15:15;;;;;;;4.90;2.95;;;18.30;73.70;;;21.28;47.76;97996.38;5007633;28;20071;-45
2022/09/05 03:17:58;;;;;;;3.25;2.63;;;18.30;74.00;;;21.25;47.68;97984.13;5006714;28;20049;-46
2022/09/05 03:21:25;;;;;;;3.33;2.50;;;18.30;73.60;;;21.30;47.70;97989.66;5006570;28;20247;-44
2022/09/05 03:24:30;;;;;;;6.10;2.80;;;18.40;73.10;;;21.34;47.85;97990.06;5007371;28;20454;-46
2022/09/05 03:27:45;;;;;;;3.25;2.78;;;18.50;72.20;;;21.32;47.68;97992.16;5004923;28;20276;-44
2022/09/05 03:30:24;;;;;;;;;;;18.70;72.10;;;21.48;47.24;98002.47;5005604;28;20053;-46
2022/09/05 03:33:38;;;;;;;4.63;2.83;;;18.70;72.70;;;21.40;47.78;97998.16;5005580;28;19917;-43
2022/09/05 03:36:46;;;;;;;5.05;3.00;;;18.60;72.30;;;21.35;47.58;97989.03;5004283;28;20058;-45
2022/09/05 03:39:45;;;;;;;4.63;3.22;;;18.50;72.50;;;21.30;47.95;97995.09;5006575;28;20245;-43
2022/09/05 03:42:56;;;;;;;3.45;2.95;;;18.40;72.90;;;21.21;48.16;97989.13;5006323;28;20048;-44
2022/09/05 03:46:03;;;;;;;2.95;2.67;;;18.20;74.00;;;21.14;47.85;97988.34;5007371;28;20066;-44
2022/09/05 03:48:55;;;;;;;3.72;3.10;;;18.10;74.80;;;21.08;48.00;98000.06;4966754;28;20063;-43
2022/09/05 03:52:32;;;;;;;2.85;2.42;;;18.10;75.50;;;21.00;47.90;97993.06;5018870;28;20049;-43
2022/09/05 03:55:27;;;;;;;3.97;2.88;;;18.00;75.70;;;21.01;48.44;97997.44;4991661;28;20066;-43
2022/09/05 03:58:29;;;;;;;3.60;2.72;;;18.00;76.30;;;21.01;48.66;97997.44;5007754;28;20056;-44
2022/09/05 04:01:36;;;;;;;6.72;2.95;;;18.00;76.60;;;21.02;48.28;97998.25;4993353;28;20066;-43
2022/09/05 04:04:54;;;;;;;3.95;3.33;;;18.00;76.50;;;20.99;48.31;97993.25;5008632;28;20053;-43
2022/09/05 04:07:52;;;;;;;5.35;3.33;;;18.00;76.60;;;20.97;48.50;97989.94;5009699;28;20060;-45
2022/09/05 04:11:18;;;;;;;3.50;2.90;;;17.90;76.60;;;20.90;48.46;98006.25;5009011;28;20061;-44
2022/09/05 04:14:01;;;;;;;3.08;2.78;;;17.90;77.40;;;20.89;48.73;97999.16;4990313;28;20065;-43
2022/09/05 04:17:17;;;;;;;4.45;3.17;;;17.80;77.30;;;20.89;48.64;98001.03;5009179;28;20045;-43
2022/09/05 04:20:27;;;;;;;4.93;2.65;;;17.90;77.10;;;20.84;48.85;97997.13;5007379;28;20059;-44
2022/09/05 04:23:27;;;;;;;4.55;3.72;;;17.80;77.50;;;20.82;48.79;97998.38;5009671;28;20328;-43
2022/09/05 04:26:29;;;;;;;5.32;3.53;;;17.90;77.60;;;20.78;49.14;97987.19;5009452;28;20068;-43
2022/09/05 04:29:25;;;;;;;3.83;3.17;;;17.90;77.50;;;20.79;49.05;97996.94;5008175;28;20049;-44
2022/09/05 04:32:37;;;;;;;4.70;3.05;;;18.00;76.90;;;20.79;49.21;97996.94;5010002;28;20344;-43
2022/09/05 04:36:11;;;;;;;4.13;3.15;;;18.00;77.30;;;20.81;49.39;97999.44;5009457;28;20054;-43
2022/09/05 04:38:45;;;;;;;4.22;3.10;;;18.10;77.20;;;20.85;49.09;97997.94;4967275;28;20046;-45
2022/09/05 04:41:26;;;;;;;3.83;3.25;;;18.00;76.50;;;20.83;49.17;98000.03;5006346;28;20061;-43
2022/09/05 04:44:16;;;;;;;3.45;3.00;;;18.10;76.50;;;20.87;49.48;98006.66;5009629;28;20041;-46
2022/09/05 04:46:52;;;;;;;5.57;2.90;;;18.10;76.70;;;20.87;49.41;98012.09;5008593;28;20244;-43
2022/09/05 04:49:38;;;;;;;4.85;3.97;;;18.10;76.90;;;20.85;49.65;98014.19;5008834;28;20050;-43
2022/09/05 04:52:53;;;;;;;6.78;3.42;;;18.10;77.40;;;20.82;49.48;98011.91;5007721;28;20375;-43
2022/09/05 04:55:29;;;;;;;4.47;3.10;;;18.00;77.80;;;20.85;49.66;98006.88;5009121;28;20050;-43
2022/09/05 04:58:30;;;;;;;6.63;3.95;;;17.90;77.90;;;20.81;49.35;98016.50;5008693;28;20064;-43
2022/09/05 05:01:26;;;;;;;4.78;3.03;;;17.90;78.50;;;20.85;49.56;98022.28;5009844;28;20054;-44
2022/09/05 05:04:21;;;;;;;4.70;3.42;;;17.90;78.30;;;20.88;49.30;98026.44;5008789;28;20064;-43
2022/09/05 05:07:25;;;;;;;;;;;17.90;77.80;;;21.00;49.01;98027.41;5010434;28;20263;-44
2022/09/05 05:10:00;;;;;;;4.65;3.25;;;18.00;78.30;;;20.93;49.34;98030.16;5007122;28;19925;-43
2022/09/05 05:13:13;;;;;;;5.10;3.53;;;18.00;77.80;;;20.89;49.27;98031.63;5007518;28;20341;-43
2022/09/05 05:16:23;;;;;;;3.83;2.95;;;18.00;77.60;;;20.89;49.54;98033.53;5008036;28;20067;-43
2022/09/05 05:19:31;;;;;;;5.15;3.10;;;18.00;77.70;;;20.88;49.57;98037.25;5007766;28;20050;-43
2022/09/05 05:22:03;;;;;;;5.32;3.58;;;18.00;78.00;;;20.88;49.61;98040.81;5007623;28;20050;-43
2022/09/05 05:24:45;;;;;;;6.03;3.47;;;18.00;77.60;;;20.91;49.50;98039.53;5007482;28;20072;-43
2022/09/05 05:27:37;;;;;;;4.55;3.00;;;18.10;77.90;;;20.89;49.69;98039.75;5008016;28;20056;-43
2022/09/05 05:30:09;;;;;;;5.03;3.80;;;18.00;77.40;;;20.90;49.69;98038.72;5008162;28;20056;-42
2022/09/05 05:32:50;;;;;;;6.13;3.10;;;18.00;77.40;;;20.92;49.68;98038.47;5007317;28;20307;-42
2022/09/05 05:35:29;;;;;;;4.97;3.13;;;18.00;77.60;;;20.92;49.51;98049.31;5007348;28;20072;-43
2022/09/05 05:38:15;;;;;;;3.53;2.97;;;18.00;77.80;;;20.91;49.79;98053.91;5006124;28;20054;-43
2022/09/05 05:41:15;;;;;;;4.88;3.42;;;18.00;78.30;;;20.94;49.80;98055.34;5008522;28;20348;-42
2022/09/05 05:43:44;;;;;;;5.90;3.22;;;18.10;78.20;;;20.97;49.69;98053.00;5008167;28;20049;-43
2022/09/05 05:46:32;;;;;;;5.53;3.33;;;18.10;77.70;;;20.98;49.51;98061.97;5009012;28;20054;-42
2022/09/05 05:49:48;;;;;;;6.32;3.40;;;18.10;78.00;;;20.99;49.82;98056.34;5007184;28;20057;-42
2022/09/05 05:52:59;;;;;;;4.63;3.40;;;18.10;78.00;;;21.04;49.74;98061.09;4995514;28;20061;-42
2022/09/05 05:56:01;;;;;;;4.43;4.00;;;18.20;78.00;;;21.07;49.66;98065.25;5007187;28;20050;-43
2022/09/05 05:58:57;;;;;;;6.75;3.47;;;18.20;77.80;;;21.07;49.70;98060.66;5008696;28;20052;-43
2022/09/05 06:02:01;;;;;;;7.85;3.22;;;18.30;77.70;;;21.09;49.59;98063.97;5007559;28;20073;-43
2022/09/05 06:04:55;;;;;;;4.97;3.65;;;18.30;77.60;;;21.13;49.44;98062.50;5009249;28;20054;-43
2022/09/05 06:08:07;;;;;;;3.90;2.95;;;18.30;77.70;;;21.17;49.45;98062.88;5006337;28;20050;-42
2022/09/05 06:11:17;;;;;;;4.10;3.47;;;18.40;77.50;;;21.22;49.46;98068.47;5008422;28;20337;-42
2022/09/05 06:14:52;;;;;;;5.32;3.33;;;18.40;77.00;;;21.26;49.50;98060.75;5008940;28;20512;-43
2022/09/05 06:17:50;;;;;;;3.75;3.22;;;18.50;77.20;;;21.30;49.62;98068.19;5007522;28;20045;-43
2022/09/05 06:21:05;;;;;;;9.60;3.67;;;18.50;77.00;;;21.30;49.43;98062.78;5007264;28;20235;-44
2022/09/05 06:24:27;;;;;;;3.83;2.83;;;18.60;76.50;;;21.40;49.59;98063.13;5007111;28;20053;-45
2022/09/05 06:27:27;;;;;;;6.13;3.20;;;18.70;76.40;;;21.46;49.67;98064.19;5006982;28;20071;-44
2022/09/05 06:30:13;;;;;;;8.07;3.42;;;18.70;76.50;;;21.52;49.58;98063.28;5007629;28;20054;-45
2022/09/05 06:33:08;;;;;;;6.22;3.38;;;18.80;76.40;;;21.57;49.59;98065.31;5006865;28;20239;-43
2022/09/05 06:36:24;;;;;;;7.28;3.10;;;18.90;76.20;;;21.62;49.74;98068.19;5007666;28;20054;-43
2022/09/05 06:39:30;;;;;;;5.05;3.10;;;19.00;75.90;;;21.68;49.60;98070.00;4986015;28;20053;-44
2022/09/05 06:42:33;;;;;;;4.65;3.08;;;19.10;75.70;;;21.73;49.42;98072.03;5007715;28;20064;-42
2022/09/05 06:45:52;;;;;;;4.28;3.53;;;19.20;75.40;;;21.82;49.33;98073.44;5007031;28;20057;-45
2022/09/05 06:48:46;;;;;;;5.53;2.78;;;19.20;75.40;;;21.90;49.37;98072.31;5006882;28;20050;-44
2022/09/05 06:52:21;;;;;;;6.40;2.88;;;19.30;75.20;;;21.96;49.21;98074.94;4992974;28;20381;-43
2022/09/05 06:55:36;;;;;;;5.07;3.50;;;19.40;74.60;;;22.00;49.24;98075.31;5006388;28;20222;-43
2022/09/05 06:58:26;;;;;;;7.45;3.05;;;19.40;74.30;;;22.05;49.27;98074.66;5006608;28;20052;-43
2022/09/05 07:00:57;;;;;;;5.15;3.40;;;19.50;74.00;;;22.07;49.36;98075.28;5007572;28;20057;-42
2022/09/05 07:03:59;;;;;;;6.07;3.28;;;19.50;73.80;;;22.14;48.94;98079.56;5006465;28;20050;-43
2022/09/05 07:07:03;;;;;;;5.78;3.72;;;19.50;73.80;;;22.23;49.09;98078.19;5005942;28;20070;-45
2022/09/05 07:09:46;;;;;;;6.63;2.90;;;19.60;73.50;;;22.23;48.81;98071.94;5006477;28;20052;-43
2022/09/05 07:12:47;;;;;;;10.95;3.60;;;19.70;73.40;;;22.27;48.69;98081.31;5007353;28;20060;-44
2022/09/05 07:15:59;;;;;;;6.00;3.53;;;19.70;73.10;;;22.30;48.71;98075.47;5007392;28;20053;-47
2022/09/05 07:18:58;;;;;;;10.27;3.80;;;19.70;73.20;;;22.35;49.10;98077.47;5006165;28;20065;-45
2022/09/05 07:21:53;;;;;;;6.53;2.95;;;19.80;73.30;;;22.39;48.91;98079.53;5005944;28;20243;-44
2022/09/05 07:24:27;;;;;;;7.95;3.42;;;19.80;73.00;;;22.39;48.94;98078.69;5006397;28;20057;-43
2022/09/05 07:27:42;;;;;;;7.40;3.50;;;19.90;73.10;;;22.50;48.97;98083.34;5005468;28;20060;-44
2022/09/05 07:30:32;;;;;;;4.60;3.10;;;19.90;72.90;;;22.56;48.87;98081.63;5004951;28;20050;-43
2022/09/05 07:33:03;;;;;;;3.95;3.35;;;20.00;72.90;;;22.60;48.85;98074.66;5004655;28;20068;-45
2022/09/05 07:35:38;;;;;;;3.70;2.90;;;20.10;72.90;;;22.67;48.84;98071.88;5008712;28;20061;-44
2022/09/05 07:38:23;;;;;;;4.57;3.10;;;20.20;72.60;;;22.75;49.12;98082.44;5008920;28;20057;-43
2022/09/05 07:41:24;;;;;;;4.18;3.38;;;20.20;72.70;;;22.83;48.93;98079.38;5011848;28;20048;-43
2022/09/05 07:44:17;;;;;;;5.82;3.13;;;20.30;72.50;;;22.90;48.47;98087.47;5009307;28;20061;-43
2022/09/05 07:46:57;;;;;;;3.42;2.60;;;20.40;72.40;;;23.00;48.81;98083.09;5009676;28;20362;-43
2022/09/05 07:49:29;;;;;;;7.43;3.20;;;20.40;72.20;;;23.07;48.29;98091.22;5008615;28;20042;-44
2022/09/05 07:52:22;;;;;;;4.75;2.92;;;20.50;71.70;;;23.14;48.43;98089.22;5010037;28;20248;-44
2022/09/05 07:55:37;;;;;;;3.92;3.22;;;20.60;71.40;;;23.24;48.30;98091.34;5008935;28;20054;-44
2022/09/05 07:58:40;;;;;;;3.95;2.47;;;20.60;71.00;;;23.37;47.90;98091.16;5007025;28;20076;-44
2022/09/05 08:01:12;;;;;;;5.43;3.55;;;20.70;70.60;;;23.47;47.94;98092.47;5008570;28;20221;-44
2022/09/05 08:03:42;;;;;;;5.20;3.20;;;20.90;70.70;;;23.54;47.62;98090.50;5008889;28;20076;-44
2022/09/05 08:06:25;;;;;;;6.40;3.55;;;21.00;69.90;;;23.66;47.35;98096.75;5010651;28;20048;-43
2022/09/05 08:09:24;;;;;;;3.55;2.60;;;21.10;68.20;;;23.79;47.00;98093.03;5008782;28;20058;-44
2022/09/05 08:12:23;;;;;;;5.97;2.80;;;21.20;68.30;;;23.91;47.01;98090.31;5008678;28;20050;-43
2022/09/05 08:15:21;;;;;;;4.65;2.72;;;21.40;67.70;;;24.03;46.65;98093.84;5008582;28;20056;-44
2022/09/05 08:18:36;;;;;;;4.20;2.95;;;21.40;67.00;;;24.09;46.53;98086.63;5011071;28;20060;-44
2022/09/05 08:21:50;;;;;;;2.83;2.50;;;21.50;66.50;;;24.18;46.15;98091.47;5009557;28;20057;-44
2022/09/05 08:24:25;;;;;;;6.20;3.10;;;21.70;64.90;;;24.21;45.96;98092.88;5033402;28;20268;-44
2022/09/05 08:27:19;;;;;;;5.47;2.92;;;21.70;66.10;;;24.25;45.92;98082.34;5017779;28;20060;-43
2022/09/05 08:30:01;;;;;;;7.78;2.65;;;21.70;66.30;;;24.33;45.80;98084.69;5019020;28;20050;-44
2022/09/05 08:33:03;;;;;;;7.30;3.30;;;21.80;65.40;;;24.37;45.76;98080.47;5016506;28;20072;-43
2022/09/05 08:36:09;;;;;;;6.22;2.97;;;21.80;65.20;;;24.42;45.86;98083.28;5015905;28;20060;-45
2022/09/05 08:38:41;;;;;;;7.25;3.47;;;21.90;65.10;;;24.48;45.44;98076.88;5008068;28;20072;-45
2022/09/05 08:41:23;;;;;;;7.60;2.72;;;21.90;65.20;;;24.53;45.70;98079.72;5008438;28;20072;-47
2022/09/05 08:44:30;;;;;;;5.78;3.10;;;22.00;65.10;;;24.61;45.24;98083.16;5008269;28;20063;-44
2022/09/05 08:47:42;;;;;;;5.30;2.65;;;22.10;64.30;;;24.70;44.89;98079.81;5008981;28;20052;-45
2022/09/05 08:50:21;;;;;;;4.88;2.90;;;22.10;62.00;;;24.75;44.85;98081.78;5009368;28;20076;-44
2022/09/05 08:53:31;;;;;;;3.78;3.35;;;22.20;63.70;;;24.75;44.80;98082.59;5007184;28;20056;-44
2022/09/05 08:56:32;;;;;;;5.88;2.80;;;22.30;62.50;;;24.90;44.77;98073.09;5009329;28;20308;-44
2022/09/05 08:59:33;;;;;;;8.45;2.47;;;22.40;63.20;;;24.97;44.65;98076.50;5006240;28;20049;-42
2022/09/05 09:02:37;;;;;;;2.92;2.50;;;22.50;62.20;;;25.03;44.59;98085.56;5009370;28;20314;-44
2022/09/05 09:05:51;;;;;;;4.80;2.70;;;22.50;62.20;;;25.12;44.25;98075.94;5009750;28;20061;-43
2022/09/05 09:08:51;;;;;;;4.95;2.70;;;22.60;61.60;;;25.21;44.42;98079.13;5008069;28;20054;-44
2022/09/05 09:11:49;;;;;;;3.50;2.70;;;22.70;61.50;;;25.22;44.43;98076.19;5008695;28;20053;-46
2022/09/05 09:14:51;;;;;;;4.82;2.28;;;22.80;61.50;;;25.33;44.31;98074.44;5009001;28;20054;-44
2022/09/05 09:17:45;;;;;;;4.32;2.92;;;22.80;62.70;;;25.37;44.31;98072.88;5008285;28;20236;-46
2022/09/05 09:20:36;;;;;;;6.35;2.50;;;22.90;61.80;;;25.43;44.12;98071.06;5007431;28;20054;-44
2022/09/05 09:23:21;;;;;;;6.50;3.33;;;22.90;61.70;;;25.47;44.18;98066.78;5007215;28;20053;-43
2022/09/05 09:26:15;;;;;;;7.45;2.92;;;23.00;62.40;;;25.55;43.97;98069.06;5008718;28;20338;-45
2022/09/05 09:29:09;;;;;;;3.08;2.75;;;23.00;61.30;;;25.60;44.03;98062.91;5008187;28;20340;-48
2022/09/05 09:32:08;;;;;;;3.42;3.13;;;23.10;60.70;;;25.69;43.89;98061.41;5005462;28;20058;-43
2022/09/05 09:35:15;;;;;;;5.63;2.88;;;23.20;60.20;;;25.72;43.53;98045.34;4998542;28;20054;-44
2022/09/05 09:38:26;;;;;;;3.72;2.60;;;23.20;60.00;;;25.80;43.69;98051.47;5006252;28;20050;-44
2022/09/05 09:41:25;;;;;;;3.70;2.92;;;23.20;60.30;;;25.85;43.32;98055.09;5007349;28;20221;-44
2022/09/05 09:44:23;;;;;;;3.08;2.42;;;23.30;59.80;;;25.84;42.88;98048.03;5008580;28;20048;-44
2022/09/05 09:46:52;;;;;;;2.97;2.28;;;23.40;58.70;;;25.90;43.09;98052.47;5007626;28;20049;-43
2022/09/05 09:49:53;;;;;;;3.42;2.90;;;23.40;60.10;;;25.96;43.15;98052.56;5009084;28;20064;-43
2022/09/05 09:52:55;;;;;;;2.83;2.28;;;23.40;58.40;;;26.02;42.98;98057.03;5008451;28;20050;-44
2022/09/05 09:56:02;;;;;;;3.92;3.00;;;23.60;58.30;;;26.09;42.18;98050.31;5007382;28;20064;-44
2022/09/05 09:59:02;;;;;;;4.80;2.40;;;23.60;57.60;;;26.18;42.09;98047.97;5007112;28;20500;-43
2022/09/05 10:01:52;;;;;;;5.10;2.78;;;23.60;57.50;;;26.25;41.76;98054.06;5007516;28;20054;-45
2022/09/05 10:04:57;;;;;;;2.55;2.35;;;23.70;57.00;;;26.33;41.67;98050.91;5007902;28;20046;-44
2022/09/05 10:08:11;;;;;;;4.13;2.22;;;23.80;55.40;;;26.42;41.04;98045.78;5007215;28;20046;-45
2022/09/05 10:11:18;;;;;;;3.58;2.15;;;23.90;54.40;;;26.48;41.06;98050.28;5006622;28;20058;-44
2022/09/05 10:14:59;;;;;;;3.00;2.70;;;23.90;56.70;;;26.55;41.11;98049.25;5008589;28;20072;-45
2022/09/05 10:18:24;;;;;;;3.75;2.60;;;24.00;54.80;;;26.59;40.77;98043.03;5007520;28;20046;-43
2022/09/05 10:21:13;;;;;;;3.55;3.10;;;24.10;53.90;;;26.62;39.93;98047.16;5005996;28;20054;-44
2022/09/05 10:24:21;;;;;;;3.83;2.70;;;24.10;54.90;;;26.66;39.72;98040.94;5006550;28;20050;-48
2022/09/05 10:27:22;;;;;;;3.15;2.40;;;24.20;54.40;;;26.69;40.04;98034.13;5006332;28;20049;-44
2022/09/05 10:30:30;;;;;;;9.70;2.90;;;24.20;54.40;;;26.72;39.72;98033.63;5007743;28;20056;-44
2022/09/05 10:33:38;;;;;;;3.58;2.28;;;24.40;52.50;;;26.73;39.46;98027.06;5019286;28;20065;-45
2022/09/05 10:36:28;;;;;;;3.85;3.45;;;24.60;51.70;;;26.86;39.50;98020.41;5007004;28;20375;-45
2022/09/05 10:39:19;;;;;;;6.15;2.55;;;24.60;53.20;;;26.85;39.62;98008.66;5005717;28;20062;-45
2022/09/05 10:42:00;;;;;;;3.40;2.80;;;24.70;52.40;;;26.99;38.56;98013.72;5007264;28;20054;-47
2022/09/05 10:45:01;;;;;;;3.67;2.83;;;24.80;51.30;;;27.09;38.79;98008.31;5007379;28;20061;-44
2022/09/05 10:47:47;;;;;;;6.55;3.30;;;24.80;51.90;;;27.15;38.37;98006.47;5005169;28;20221;-49
2022/09/05 10:50:35;;;;;;;2.90;2.45;;;24.80;52.00;;;27.22;38.99;98005.16;5005951;28;20053;-46
2022/09/05 10:53:25;;;;;;;4.82;2.60;;;24.80;51.50;;;27.26;38.23;97997.31;5006192;28;20045;-45
2022/09/05 10:56:11;;;;;;;3.35;2.70;;;25.00;49.00;;;27.40;38.14;98011.34;5007714;28;20061;-44
2022/09/05 10:59:00;;;;;;;3.67;2.70;;;25.10;49.90;;;27.40;37.41;98008.63;5005474;28;20053;-44
2022/09/05 11:02:13;;;;;;;4.85;2.75;;;25.10;49.00;;;27.53;38.14;98002.72;5006383;28;20054;-45
2022/09/05 11:05:22;;;;;;;4.15;2.65;;;25.30;50.60;;;27.52;37.60;97995.56;5008799;28;20077;-46
2022/09/05 11:08:17;;;;;;;3.53;2.60;;;25.30;49.00;;;27.50;37.48;97998.56;5006960;28;20048;-46
2022/09/05 11:11:00;;;;;;;3.90;2.60;;;25.20;49.10;;;27.51;37.27;97996.69;5005942;28;20060;-44
2022/09/05 11:13:59;;;;;;;5.03;2.90;;;25.20;49.30;;;27.54;37.44;97992.59;5026271;28;20061;-44
2022/09/05 11:16:51;;;;;;;5.18;3.13;;;25.10;49.40;;;27.57;37.24;97989.31;5026860;28;20382;-44
2022/09/05 11:19:47;;;;;;;4.72;2.83;;;25.10;49.10;;;27.54;36.80;97990.66;5024302;28;20085;-45
2022/09/05 11:22:16;;;;;;;4.03;2.72;;;25.20;47.80;;;27.49;36.24;97991.47;5021312;28;20065;-45
2022/09/05 11:24:58;;;;;;;3.83;2.92;;;25.20;48.50;;;27.55;36.72;97988.75;5025664;28;20063;-47
2022/09/05 11:27:48;;;;;;;5.40;2.90;;;25.20;48.80;;;27.52;36.60;97992.84;5016793;28;20058;-44
2022/09/05 11:30:22;;;;;;;3.33;2.50;;;25.10;48.60;;;27.53;36.16;97990.91;5005337;28;20068;-44
2022/09/05 11:33:31;;;;;;;3.13;2.70;;;25.10;48.50;;;27.54;36.82;97993.41;5006136;28;20352;-44
2022/09/05 11:36:32;;;;;;;3.58;2.97;;;25.20;47.90;;;27.64;36.24;97993.47;5007485;28;20056;-45
2022/09/05 11:39:50;;;;;;;3.25;2.30;;;25.30;47.60;;;27.68;36.36;97993.75;5006294;28;20050;-44
2022/09/05 11:42:57;;;;;;;4.63;3.28;;;25.30;48.10;;;27.68;35.88;97986.41;5016150;28;20248;-43
2022/09/05 11:45:56;;;;;;;4.20;2.75;;;25.30;46.90;;;27.71;35.68;97990.50;5029760;28;20050;-45
2022/09/05 11:48:52;;;;;;;2.97;2.50;;;25.40;47.70;;;27.72;35.63;97986.69;5016433;28;20052;-46
2022/09/05 11:52:12;;;;;;;3.13;2.70;;;25.30;47.10;;;27.70;35.74;97980.66;5017295;28;20058;-44
2022/09/05 11:54:59;;;;;;;4.43;2.75;;;25.50;45.90;;;27.77;35.64;97983.97;5016733;28;20050;-45
2022/09/05 11:58:20;;;;;;;4.45;3.05;;;25.50;47.00;;;27.82;35.69;97980.44;5011871;28;20041;-46
2022/09/05 12:01:32;;;;;;;3.80;2.47;;;25.60;45.40;;;27.99;35.48;97974.81;4988388;28;20273;-44
2022/09/05 12:04:45;;;;;;;3.60;2.33;;;25.60;46.30;;;28.06;35.66;97969.94;4973093;28;20142;-44
2022/09/05 12:08:07;;;;;;;4.38;2.83;;;25.60;45.60;;;28.18;34.93;97966.97;5006128;28;20054;-49
2022/09/05 12:11:04;;;;;;;4.10;2.83;;;25.80;44.40;;;28.26;34.94;97969.19;5005763;28;20064;-44
2022/09/05 12:14:20;;;;;;;4.93;3.15;;;25.90;44.50;;;28.35;34.72;97967.59;5020556;28;20052;-46
2022/09/05 12:17:31;;;;;;;3.95;2.50;;;26.00;44.50;;;28.60;34.98;97964.13;5007355;28;20049;-44
2022/09/05 12:20:28;;;;;;;6.93;2.40;;;26.20;45.40;;;28.80;34.27;97960.59;5006994;28;20054;-45
2022/09/05 12:23:25;;;;;;;3.50;2.55;;;26.40;44.80;;;29.03;34.40;97958.44;5019772;28;20042;-44
2022/09/05 12:26:21;;;;;;;3.67;2.90;;;26.70;44.30;;;29.15;32.99;97960.91;5020007;28;20046;-45
2022/09/05 12:29:17;;;;;;;3.30;2.95;;;26.80;42.00;;;29.33;32.92;97951.31;5020868;28;20049;-44